Terminal Aerodrome Forecast
Issued by NWS

Home | Current Version | Previous Version | Text Only | Print | Product List | Glossary On
Versions: 1 2 3 4 5 6 7 8 9 10 11 12 13 14 15
000
FTUS43 KAPX 121900 AAA
TAFTVC
TAF AMD
KTVC 121950Z 1220/1318 19005KT P6SM BKN070 OVC250
     FM130000 18004KT 4SM -SHRA SCT015 OVC028
     FM130200 18004KT 2SM SHRA BKN012 OVC025
     FM130500 VRB03KT 1 1/2SM BR OVC007
     FM131000 27006KT P6SM BKN008=

USA.gov is the U.S. government's official web portal to all federal, state and local government web resources and services.